Accueil
METAR-TAF:

METAR-TAF

Aéroports :

Aéroport de Murcie-San Javier

Murcie, Espagne

latitude: 37-47N, longitude: 000-48W, altitude: 5 m

Observation

Le bulletin a été fait il y a 25 minutes, à 00:30 UTC
Vent 14 kt de est/nord-est, variant entre nord/nord-est et est
Température 14°C
Humidité 55%
Pression 1023 hPa
Visibilité 10 km ou plus

METAR: LELC 270030Z AUTO 06014KT 030V100 9999 NCD 14/05 Q1023

Heure: 01:55 (00:55 UTC)

Prévision

Le bulletin a été fait il y a 1 heure et 55 minutes, à 23:00 UTC
Prévision valable du 27 à 00 UTC au 27 à 24 UTC
Vent 15 kt de est/nord-est
Visibilité 10 km ou plus
pas de nuages en-dessous de 1500 mètres et pas de cumulonimbus.
Probabilité 40% :
Temporairement
du 27 à 09 UTC au 27 à 18 UTC
Vent 20 kt de est/nord-est avec des rafales jusqu'à 30 kt

TAF: LELC 262300Z 2700/2724 06015KT CAVOK TX17/2713Z TN13/2706Z PROB40 TEMPO 2709/2718 06020G30KT

Observations et prévisions météorologiques de plus de 4000 aéroports (messages METAR et TAF).

Les stations disponibles sont représentées par des disques jaunes et rouges sur la carte.

Passer la souris dessus pour voir le nom de la station.

Cliquer dessus pour voir les observations et prévisions météorologiques.

Pour changer de carte: cliquez sur les boutons verts avec une croix noire pour zoomer, sur le bouton vert avec un tiret pour effectuer un zoom arrière, ou sur les flèches vertes pour les cartes adjacentes.


METAR-TAF: